Terminal Aerodrome Forecast
Issued by NWS

Home | Current Version | Previous Version | Graphics & Text | Print | Product List | Glossary On
Versions: 1 2 3 4 5 6 7 8 9 10 11 12 13 14 15 16 17 18 19 20 21 22 23 24 25 26 27 28 29 30 31 32 33 34 35 36 37 38
167
FTUS43 KGRB 150241 AAA
TAFATW
TAF AMD
KATW 150241Z 1503/1524 06012G18KT P6SM VCSH OVC005
      TEMPO 1503/1505 3SM TSRA BR BKN005 OVC015CB
     FM150500 11008G15KT 2SM -SHRA BR OVC003
     FM151000 31015G23KT 4SM SHRA OVC006
     FM151300 33022G32KT P6SM -SHRA OVC015
     FM151500 33024G34KT P6SM OVC025
     FM151700 32018G26KT P6SM BKN040
     FM152200 30010KT P6SM SCT040=

USA.gov is the U.S. government's official web portal to all federal, state and local government web resources and services.